Sterling, VA

6:09 AM EDT on September 30, 2014 (GMT -0400)
Brambleton | Change Station
CLOSE
Current Station
Personal Weather Station
Location: Brambleton, VA
Elevation: 310 ft
Nearby Weather Stations

Elev 310 ft 38.98 °N, 77.52 °W | Updated 6 seconds ago

Fog
Fog
64.3 °F
Feels Like 64.3 °F
N
0.0
Wind Variable Wind from East
Gusts 2.0 mph

Today
High -- | Low -- °F
--% Chance of Precip.
Yesterday
High -- | Low -- °F
Precip. -- in
7:04 AM 6:54 PM
Waxing Crescent, 35% visible
Pressure 29.91 in
Visibility 0.1 miles
Clouds Overcast 200 ft
Dew Point 62 °F
Humidity 93%
Rainfall 0.00 in
Snow Depth Not available.
UV 0.0 out of 12
Pollen 3.30 out of 12
Ozone Good
PM2.5 Moderate
Flu Activity Not available.
METAR KIAD 300952Z 00000KT 1/8SM BR OVC002 17/17 A2991 RMK AO2 SFC VIS 2 1/2 SLP126 T01670167

More Conditions Fewer Conditions

Pressure 29.91 in
Visibility 0.1 miles
Clouds Overcast 200 ft
Dew Point 62 °F
Humidity 93%
Rainfall 0.00 in
Snow Depth Not available.
UV 0.0 out of 12
Pollen 3.30 out of 12
Ozone Good
PM2.5 Moderate
Flu Activity Not available.
METAR KIAD 300952Z 00000KT 1/8SM BR OVC002 17/17 A2991 RMK AO2 SFC VIS 2 1/2 SLP126 T01670167

More Conditions Fewer Conditions

Nowcast | as of 5:51 am EDT on September 30, 2014

Patchy dense fog will develop across portions of the mid-Atlantic region through into the Post-dawn hours. From the northern Virginia foothills...across the Piedmont and into the metropolitan Washington and Baltimore areas...local visibilities will be reduced to within a quarter mile at times. Portions of the northern Shenandoah Valley also seeing reduced visibilities. Please use caution and low-beam headlights when driving.

×

10-Day Weather Forecast

Almanac

Astronomy

Sep. 30, 2014 Rise Set
Actual Time 7:04 AM EDT 6:54 PM EDT
Civil Twilight 6:38 AM EDT 7:20 PM EDT
Nautical Twilight 6:07 AM EDT 7:51 PM EDT
Astronomical Twilight 5:36 AM EDT 8:22 PM EDT
Moon 1:08 PM EDT 11:24 PM EDT
Length of Visible Light 12h 42m
Length of Day
11h 49m
Tomorrow will be 2m 30s shorter.
Waxing Crescent, 35% of the Moon is Illuminated
Today
Waxing Crescent
Oct 1
First Quarter
Oct 8
Full
Oct 15
Last Quarter
Oct 23
New

Today's Extremes

State Highs State Lows

Community

WunderPhotos

Upload Photos

1,757,606 photos uploaded!

Nearby

Air Quality

  Air Quality AQ Index Pollutant
Yesterday Good
PM10
Yesterday Good
OZONE
Current Moderate
PM2.5
Current Good
OZONE
Tuesday Moderate
PM2.5
Wednesday Moderate
PM2.5
Thursday Moderate
PM2.5

Snow Depth

Station Depth Elevation
No new snow has been reported.

Earthquake Activity

City Distance Mag. Time & Date
No recent earthquake activity has been reported nearby.
Minimum magnitude displayed is 2.5.

Coastal Water Temperatures

Place Temperature
Washington, DC 71.1 °F
Baltimore, MD 73.9 °F
Solomons Island, MD 72.0 °F

Nearby Weather Stations